<?xml version="1.0" encoding="UTF-8" standalone="no" ?><gpx xmlns="http://www.topografix.com/GPX/1/1" xmlns:gpxx="http://www.garmin.com/xmlschemas/GpxExtensions/v3" xmlns:wptx1="http://www.garmin.com/xmlschemas/WaypointExtension/v1" xmlns:gpxtpx="http://www.garmin.com/xmlschemas/TrackPointExtension/v1" creator="GuideVTT.com" version="1.1" xmlns:xsi="http://www.w3.org/2001/XMLSchema-instance" xsi:schemaLocation="http://www.topografix.com/GPX/1/1 http://www.topografix.com/GPX/1/1/gpx.xsd http://www.garmin.com/xmlschemas/GpxExtensions/v3 http://www8.garmin.com/xmlschemas/GpxExtensionsv3.xsd http://www.garmin.com/xmlschemas/WaypointExtension/v1 http://www8.garmin.com/xmlschemas/WaypointExtensionv1.xsd http://www.garmin.com/xmlschemas/TrackPointExtension/v1 http://www.garmin.com/xmlschemas/TrackPointExtensionv1.xsd">
<metadata><link href="http://www.garmin.com"><text>Garmin International</text></link><time>2013-06-22T15:13:50Z</time></metadata>
<trk><name>parcours10.gpx</name><extensions><gpxx:TrackExtension><gpxx:DisplayColor>Cyan</gpxx:DisplayColor></gpxx:TrackExtension></extensions><trkseg>
<trkpt lat="46.17660000" lon="7.25561670"><ele>1091</ele><time>2003-06-15T13:39:53Z</time></trkpt>
<trkpt lat="46.17650000" lon="7.25568330"><ele>1096</ele><time>2003-06-15T13:40:34Z</time></trkpt>
<trkpt lat="46.17681670" lon="7.25710000"><ele>1094</ele><time>2003-06-15T13:41:10Z</time></trkpt>
<trkpt lat="46.17675000" lon="7.25778330"><ele>1097</ele><time>2003-06-15T13:41:29Z</time></trkpt>
<trkpt lat="46.17690000" lon="7.25918330"><ele>1101</ele><time>2003-06-15T13:42:05Z</time></trkpt>
<trkpt lat="46.17781670" lon="7.26156670"><ele>1110</ele><time>2003-06-15T13:43:06Z</time></trkpt>
<trkpt lat="46.17796670" lon="7.26456670"><ele>1121</ele><time>2003-06-15T13:44:16Z</time></trkpt>
<trkpt lat="46.17865000" lon="7.26698330"><ele>1120</ele><time>2003-06-15T13:44:52Z</time></trkpt>
<trkpt lat="46.17915000" lon="7.26773330"><ele>1122</ele><time>2003-06-15T13:45:18Z</time></trkpt>
<trkpt lat="46.17970000" lon="7.26931670"><ele>1128</ele><time>2003-06-15T13:46:20Z</time></trkpt>
<trkpt lat="46.18035000" lon="7.27223330"><ele>1131</ele><time>2003-06-15T13:48:03Z</time></trkpt>
<trkpt lat="46.18090000" lon="7.27350000"><ele>1131</ele><time>2003-06-15T13:48:54Z</time></trkpt>
<trkpt lat="46.18090000" lon="7.27410000"><ele>1131</ele><time>2003-06-15T13:50:02Z</time></trkpt>
<trkpt lat="46.18115000" lon="7.27448330"><ele>1131</ele><time>2003-06-15T13:50:19Z</time></trkpt>
<trkpt lat="46.18230000" lon="7.27781670"><ele>1133</ele><time>2003-06-15T13:52:01Z</time></trkpt>
<trkpt lat="46.18255000" lon="7.27895000"><ele>1134</ele><time>2003-06-15T13:53:02Z</time></trkpt>
<trkpt lat="46.18331670" lon="7.28040000"><ele>1139</ele><time>2003-06-15T13:56:31Z</time></trkpt>
<trkpt lat="46.18488330" lon="7.28171670"><ele>1144</ele><time>2003-06-15T13:57:21Z</time></trkpt>
<trkpt lat="46.18596670" lon="7.28321670"><ele>1157</ele><time>2003-06-15T13:58:04Z</time></trkpt>
<trkpt lat="46.18756670" lon="7.28610000"><ele>1169</ele><time>2003-06-15T13:59:08Z</time></trkpt>
<trkpt lat="46.18820000" lon="7.28686670"><ele>1169</ele><time>2003-06-15T13:59:31Z</time></trkpt>
<trkpt lat="46.18866670" lon="7.28766670"><ele>1177</ele><time>2003-06-15T14:00:18Z</time></trkpt>
<trkpt lat="46.18840000" lon="7.28873330"><ele>1185</ele><time>2003-06-15T14:01:09Z</time></trkpt>
<trkpt lat="46.18855000" lon="7.28933330"><ele>1185</ele><time>2003-06-15T14:01:38Z</time></trkpt>
<trkpt lat="46.18885000" lon="7.28975000"><ele>1188</ele><time>2003-06-15T14:02:03Z</time></trkpt>
<trkpt lat="46.18820000" lon="7.29103330"><ele>1202</ele><time>2003-06-15T14:03:51Z</time></trkpt>
<trkpt lat="46.18820000" lon="7.29125000"><ele>1231</ele><time>2003-06-15T14:05:39Z</time></trkpt>
<trkpt lat="46.18878330" lon="7.29260000"><ele>1221</ele><time>2003-06-15T14:06:35Z</time></trkpt>
<trkpt lat="46.18888330" lon="7.29465000"><ele>1247</ele><time>2003-06-15T14:08:39Z</time></trkpt>
<trkpt lat="46.18876670" lon="7.29440000"><ele>1251</ele><time>2003-06-15T14:08:55Z</time></trkpt>
<trkpt lat="46.18871670" lon="7.29446670"><ele>1254</ele><time>2003-06-15T14:09:03Z</time></trkpt>
<trkpt lat="46.18878330" lon="7.29483330"><ele>1257</ele><time>2003-06-15T14:09:18Z</time></trkpt>
<trkpt lat="46.18826670" lon="7.29703330"><ele>1260</ele><time>2003-06-15T14:10:55Z</time></trkpt>
<trkpt lat="46.18706670" lon="7.29716670"><ele>1261</ele><time>2003-06-15T14:11:47Z</time></trkpt>
<trkpt lat="46.18685000" lon="7.29545000"><ele>1277</ele><time>2003-06-15T14:13:07Z</time></trkpt>
<trkpt lat="46.18541670" lon="7.29185000"><ele>1310</ele><time>2003-06-15T14:18:13Z</time></trkpt>
<trkpt lat="46.18410000" lon="7.28985000"><ele>1327</ele><time>2003-06-15T14:19:43Z</time></trkpt>
<trkpt lat="46.18365000" lon="7.28871670"><ele>1334</ele><time>2003-06-15T14:20:19Z</time></trkpt>
<trkpt lat="46.18223330" lon="7.28733330"><ele>1342</ele><time>2003-06-15T14:21:25Z</time></trkpt>
<trkpt lat="46.18168330" lon="7.28601670"><ele>1352</ele><time>2003-06-15T14:22:10Z</time></trkpt>
<trkpt lat="46.18080000" lon="7.28540000"><ele>1356</ele><time>2003-06-15T14:22:45Z</time></trkpt>
<trkpt lat="46.18038330" lon="7.28465000"><ele>1362</ele><time>2003-06-15T14:23:18Z</time></trkpt>
<trkpt lat="46.18050000" lon="7.28430000"><ele>1358</ele><time>2003-06-15T14:23:25Z</time></trkpt>
<trkpt lat="46.18000000" lon="7.28196670"><ele>1356</ele><time>2003-06-15T14:23:57Z</time></trkpt>
<trkpt lat="46.17946670" lon="7.28081670"><ele>1361</ele><time>2003-06-15T14:24:36Z</time></trkpt>
<trkpt lat="46.17916670" lon="7.27960000"><ele>1374</ele><time>2003-06-15T14:25:23Z</time></trkpt>
<trkpt lat="46.17771670" lon="7.27538330"><ele>1403</ele><time>2003-06-15T14:28:33Z</time></trkpt>
<trkpt lat="46.17763330" lon="7.27388330"><ele>1403</ele><time>2003-06-15T14:29:00Z</time></trkpt>
<trkpt lat="46.17720000" lon="7.27291670"><ele>1405</ele><time>2003-06-15T14:29:21Z</time></trkpt>
<trkpt lat="46.17671670" lon="7.27253330"><ele>1409</ele><time>2003-06-15T14:29:37Z</time></trkpt>
<trkpt lat="46.17640000" lon="7.27206670"><ele>1419</ele><time>2003-06-15T14:30:04Z</time></trkpt>
<trkpt lat="46.17631670" lon="7.27181670"><ele>1420</ele><time>2003-06-15T14:30:16Z</time></trkpt>
<trkpt lat="46.17641670" lon="7.27151670"><ele>1422</ele><time>2003-06-15T14:30:31Z</time></trkpt>
<trkpt lat="46.17608330" lon="7.27116670"><ele>1430</ele><time>2003-06-15T14:31:01Z</time></trkpt>
<trkpt lat="46.17570000" lon="7.27031670"><ele>1432</ele><time>2003-06-15T14:31:29Z</time></trkpt>
<trkpt lat="46.17520000" lon="7.26828330"><ele>1433</ele><time>2003-06-15T14:32:14Z</time></trkpt>
<trkpt lat="46.17461670" lon="7.26753330"><ele>1441</ele><time>2003-06-15T14:33:10Z</time></trkpt>
<trkpt lat="46.17460000" lon="7.26823330"><ele>1449</ele><time>2003-06-15T14:35:04Z</time></trkpt>
<trkpt lat="46.17488330" lon="7.26935000"><ele>1455</ele><time>2003-06-15T14:35:37Z</time></trkpt>
<trkpt lat="46.17478330" lon="7.27081670"><ele>1459</ele><time>2003-06-15T14:36:20Z</time></trkpt>
<trkpt lat="46.17493330" lon="7.27186670"><ele>1467</ele><time>2003-06-15T14:36:51Z</time></trkpt>
<trkpt lat="46.17535000" lon="7.27311670"><ele>1473</ele><time>2003-06-15T14:37:30Z</time></trkpt>
<trkpt lat="46.17530000" lon="7.27320000"><ele>1474</ele><time>2003-06-15T14:37:34Z</time></trkpt>
<trkpt lat="46.17511670" lon="7.27288330"><ele>1475</ele><time>2003-06-15T14:37:46Z</time></trkpt>
<trkpt lat="46.17430000" lon="7.27118330"><ele>1487</ele><time>2003-06-15T14:38:41Z</time></trkpt>
<trkpt lat="46.17391670" lon="7.26983330"><ele>1494</ele><time>2003-06-15T14:39:19Z</time></trkpt>
<trkpt lat="46.17383330" lon="7.26860000"><ele>1496</ele><time>2003-06-15T14:39:51Z</time></trkpt>
<trkpt lat="46.17363330" lon="7.26800000"><ele>1496</ele><time>2003-06-15T14:40:07Z</time></trkpt>
<trkpt lat="46.17071670" lon="7.26113330"><ele>1511</ele><time>2003-06-15T14:42:13Z</time></trkpt>
<trkpt lat="46.16955000" lon="7.25620000"><ele>1493</ele><time>2003-06-15T14:42:56Z</time></trkpt>
<trkpt lat="46.16951670" lon="7.25551670"><ele>1489</ele><time>2003-06-15T14:43:02Z</time></trkpt>
<trkpt lat="46.16923330" lon="7.25475000"><ele>1484</ele><time>2003-06-15T14:43:09Z</time></trkpt>
<trkpt lat="46.16818330" lon="7.25305000"><ele>1475</ele><time>2003-06-15T14:43:28Z</time></trkpt>
<trkpt lat="46.16670000" lon="7.25148330"><ele>1465</ele><time>2003-06-15T14:43:59Z</time></trkpt>
<trkpt lat="46.16415000" lon="7.25050000"><ele>1449</ele><time>2003-06-15T14:45:06Z</time></trkpt>
<trkpt lat="46.16358330" lon="7.25071670"><ele>1444</ele><time>2003-06-15T14:45:13Z</time></trkpt>
<trkpt lat="46.16230000" lon="7.25191670"><ele>1431</ele><time>2003-06-15T14:45:30Z</time></trkpt>
<trkpt lat="46.16073330" lon="7.25233330"><ele>1421</ele><time>2003-06-15T14:45:43Z</time></trkpt>
<trkpt lat="46.15970000" lon="7.25210000"><ele>1417</ele><time>2003-06-15T14:45:51Z</time></trkpt>
<trkpt lat="46.15925000" lon="7.25225000"><ele>1414</ele><time>2003-06-15T14:45:55Z</time></trkpt>
<trkpt lat="46.15895000" lon="7.25251670"><ele>1411</ele><time>2003-06-15T14:45:58Z</time></trkpt>
<trkpt lat="46.15856670" lon="7.25420000"><ele>1402</ele><time>2003-06-15T14:46:11Z</time></trkpt>
<trkpt lat="46.15825000" lon="7.25481670"><ele>1400</ele><time>2003-06-15T14:46:16Z</time></trkpt>
<trkpt lat="46.15673330" lon="7.25575000"><ele>1382</ele><time>2003-06-15T14:46:35Z</time></trkpt>
<trkpt lat="46.15646670" lon="7.25610000"><ele>1377</ele><time>2003-06-15T14:46:43Z</time></trkpt>
<trkpt lat="46.15670000" lon="7.25556670"><ele>1372</ele><time>2003-06-15T14:46:57Z</time></trkpt>
<trkpt lat="46.15795000" lon="7.25441670"><ele>1350</ele><time>2003-06-15T14:47:18Z</time></trkpt>
<trkpt lat="46.15805000" lon="7.25395000"><ele>1346</ele><time>2003-06-15T14:47:23Z</time></trkpt>
<trkpt lat="46.15796670" lon="7.25108330"><ele>1308</ele><time>2003-06-15T14:48:09Z</time></trkpt>
<trkpt lat="46.15816670" lon="7.25051670"><ele>1289</ele><time>2003-06-15T14:49:21Z</time></trkpt>
<trkpt lat="46.15893330" lon="7.25023330"><ele>1283</ele><time>2003-06-15T14:49:37Z</time></trkpt>
<trkpt lat="46.16070000" lon="7.24908330"><ele>1255</ele><time>2003-06-15T14:50:25Z</time></trkpt>
<trkpt lat="46.16115000" lon="7.24736670"><ele>1222</ele><time>2003-06-15T14:50:54Z</time></trkpt>
<trkpt lat="46.16185000" lon="7.24656670"><ele>1196</ele><time>2003-06-15T14:51:19Z</time></trkpt>
<trkpt lat="46.16223330" lon="7.24588330"><ele>1175</ele><time>2003-06-15T14:51:41Z</time></trkpt>
<trkpt lat="46.16305000" lon="7.24513330"><ele>1157</ele><time>2003-06-15T14:52:22Z</time></trkpt>
<trkpt lat="46.16233330" lon="7.24508330"><ele>1148</ele><time>2003-06-15T14:52:54Z</time></trkpt>
<trkpt lat="46.16228330" lon="7.24498330"><ele>1143</ele><time>2003-06-15T14:52:59Z</time></trkpt>
<trkpt lat="46.16256670" lon="7.24468330"><ele>1138</ele><time>2003-06-15T14:53:08Z</time></trkpt>
<trkpt lat="46.16423330" lon="7.24421670"><ele>1130</ele><time>2003-06-15T14:54:04Z</time></trkpt>
<trkpt lat="46.16566670" lon="7.24441670"><ele>1122</ele><time>2003-06-15T14:55:02Z</time></trkpt>
<trkpt lat="46.16608330" lon="7.24391670"><ele>1125</ele><time>2003-06-15T14:55:21Z</time></trkpt>
<trkpt lat="46.16783330" lon="7.24370000"><ele>1121</ele><time>2003-06-15T14:57:06Z</time></trkpt>
<trkpt lat="46.16858330" lon="7.24300000"><ele>1120</ele><time>2003-06-15T14:57:22Z</time></trkpt>
<trkpt lat="46.16968330" lon="7.24296670"><ele>1120</ele><time>2003-06-15T14:57:48Z</time></trkpt>
<trkpt lat="46.16991670" lon="7.24291670"><ele>1121</ele><time>2003-06-15T14:57:53Z</time></trkpt>
<trkpt lat="46.17015000" lon="7.24313330"><ele>1120</ele><time>2003-06-15T14:57:58Z</time></trkpt>
<trkpt lat="46.17045000" lon="7.24415000"><ele>1121</ele><time>2003-06-15T14:58:12Z</time></trkpt>
<trkpt lat="46.17025000" lon="7.24531670"><ele>1121</ele><time>2003-06-15T14:58:26Z</time></trkpt>
<trkpt lat="46.16990000" lon="7.24626670"><ele>1120</ele><time>2003-06-15T14:58:38Z</time></trkpt>
<trkpt lat="46.17100000" lon="7.25043330"><ele>1119</ele><time>2003-06-15T14:59:28Z</time></trkpt>
<trkpt lat="46.17313330" lon="7.24953330"><ele>1119</ele><time>2003-06-15T14:59:33Z</time></trkpt>
<trkpt lat="46.17453330" lon="7.25026670"><ele>1097</ele><time>2003-06-15T14:59:54Z</time></trkpt>
<trkpt lat="46.17498330" lon="7.25093330"><ele>1097</ele><time>2003-06-15T15:00:03Z</time></trkpt>
<trkpt lat="46.17551670" lon="7.25321670"><ele>1094</ele><time>2003-06-15T15:00:24Z</time></trkpt>
<trkpt lat="46.17671670" lon="7.25598330"><ele>1092</ele><time>2003-06-15T15:01:24Z</time></trkpt>
</trkseg></trk></gpx>